Time;durP1;ratioP1;P1;durP2;ratioP2;P2;SDS_P1;SDS_P2;PMS_P1;PMS_P2;Temp;Humidity;BMP_temperature;BMP_pressure;BME280_temperature;BME280_humidity;BME280_pressure;Samples;Min_cycle;Max_cycle;Signal;HPM_P1;HPM_P2
2023/07/13 00:00:46;;;;;;;70.23;4.10;;;21.20;1.00;;;;;;5077217;28;20168;-80
2023/07/13 00:03:13;;;;;;;70.70;3.97;;;21.20;1.00;;;;;;5078260;28;20489;-80
2023/07/13 00:05:41;;;;;;;68.47;4.50;;;21.30;1.00;;;;;;5078379;28;20406;-80
2023/07/13 00:08:08;;;;;;;68.97;4.70;;;21.30;1.00;;;;;;5077920;28;20428;-80
2023/07/13 00:10:34;;;;;;;72.07;4.27;;;21.30;1.00;;;;;;5077988;28;20428;-80
2023/07/13 00:13:00;;;;;;;69.27;4.20;;;21.20;1.00;;;;;;5076926;28;20406;-80
2023/07/13 00:15:27;;;;;;;68.47;4.27;;;21.20;1.00;;;;;;5076471;28;20196;-80
2023/07/13 00:17:55;;;;;;;68.57;4.20;;;21.20;1.00;;;;;;5078422;28;20933;-80
2023/07/13 00:20:22;;;;;;;68.17;4.43;;;21.20;1.00;;;;;;5078912;28;20406;-80
2023/07/13 00:22:49;;;;;;;68.60;4.57;;;21.10;1.00;;;;;;5078136;28;20405;-80
2023/07/13 00:25:15;;;;;;;71.70;4.63;;;21.20;1.00;;;;;;5078158;28;20421;-80
2023/07/13 00:27:42;;;;;;;70.43;4.13;;;21.20;1.00;;;;;;5076355;28;20451;-80
2023/07/13 00:30:09;;;;;;;70.07;5.07;;;21.20;1.00;;;;;;5077533;28;20168;-80
2023/07/13 00:32:35;;;;;;;69.50;4.37;;;21.10;1.00;;;;;;5077171;28;20426;-80
2023/07/13 00:35:01;;;;;;;68.87;4.47;;;21.00;1.00;;;;;;5076418;28;20421;-80
2023/07/13 00:37:27;;;;;;;71.87;4.70;;;21.00;1.00;;;;;;5078102;28;20497;-80
2023/07/13 00:42:20;;;;;;;70.93;4.40;;;20.90;1.00;;;;;;5339308;22;20202;-82
2023/07/13 00:45:02;;;;;;;69.23;4.27;;;20.80;1.00;;;;;;5119619;28;20409;-82
2023/07/13 00:47:28;;;;;;;70.33;4.90;;;20.70;1.00;;;;;;5117400;28;20159;-82
2023/07/13 00:49:53;;;;;;;72.37;4.70;;;20.70;1.00;;;;;;5080064;28;20473;-82
2023/07/13 00:52:19;;;;;;;69.13;4.33;;;20.80;1.00;;;;;;5098364;28;20164;-82
2023/07/13 00:54:46;;;;;;;70.67;4.27;;;20.80;1.00;;;;;;5080571;28;20167;-82
2023/07/13 00:57:16;;;;;;;79.87;4.43;;;20.80;1.00;;;;;;5098583;28;20161;-82
2023/07/13 00:59:51;;;;;;;72.87;4.80;;;20.80;1.00;;;;;;5098014;28;20436;-82
2023/07/13 01:02:18;;;;;;;71.37;4.53;;;20.70;1.00;;;;;;5098726;28;20385;-82
2023/07/13 01:04:43;;;;;;;70.03;4.20;;;20.60;1.00;;;;;;5096972;28;20407;-82
2023/07/13 01:07:10;;;;;;;69.27;4.50;;;20.50;1.00;;;;;;5077372;28;20935;-82
2023/07/13 01:09:36;;;;;;;68.90;4.60;;;20.40;1.00;;;;;;5095947;28;20192;-82
2023/07/13 01:12:02;;;;;;;69.23;4.27;;;20.40;1.00;;;;;;5096022;28;20420;-82
2023/07/13 01:14:29;;;;;;;68.57;4.17;;;20.40;1.00;;;;;;5096145;28;20256;-82
2023/07/13 01:16:55;;;;;;;68.30;4.40;;;20.50;1.00;;;;;;5077443;28;20401;-82
2023/07/13 01:19:41;;;;;;;68.47;4.70;;;20.60;1.00;;;;;;5077378;28;20443;-82
2023/07/13 01:22:13;;;;;;;69.20;4.10;;;20.50;1.00;;;;;;5095498;28;20387;-82
2023/07/13 01:24:40;;;;;;;71.80;3.80;;;20.40;1.00;;;;;;5096321;28;20382;-82
2023/07/13 01:27:08;;;;;;;69.73;3.77;;;20.30;1.00;;;;;;5095552;28;20403;-82
2023/07/13 01:29:41;;;;;;;67.83;4.87;;;20.30;1.00;;;;;;5077486;28;20430;-82
2023/07/13 01:32:15;;;;;;;71.40;4.10;;;20.20;1.00;;;;;;5095525;28;20388;-81
2023/07/13 01:34:42;;;;;;;68.80;4.47;;;20.10;1.00;;;;;;5077251;28;20539;-82
2023/07/13 01:37:09;;;;;;;67.30;3.67;;;20.20;1.00;;;;;;5095232;28;20414;-82
2023/07/13 01:39:35;;;;;;;68.00;3.50;;;20.00;1.00;;;;;;5095149;28;20491;-82
2023/07/13 01:42:01;;;;;;;71.10;3.10;;;20.00;1.00;;;;;;5077026;28;20402;-82
2023/07/13 01:44:27;;;;;;;68.10;3.10;;;19.90;1.00;;;;;;5095384;28;20795;-82
2023/07/13 01:46:53;;;;;;;68.23;4.30;;;20.00;1.00;;;;;;5077185;28;20404;-82
2023/07/13 01:49:18;;;;;;;67.97;3.17;;;20.00;1.00;;;;;;5095232;28;20187;-82
2023/07/13 01:51:44;;;;;;;69.30;3.17;;;20.00;1.00;;;;;;5098675;28;20457;-82
2023/07/13 01:54:10;;;;;;;68.50;3.17;;;20.00;1.00;;;;;;5097067;28;20656;-82
2023/07/13 01:56:35;;;;;;;69.67;3.07;;;19.90;1.00;;;;;;5150433;22;20170;-79
2023/07/13 01:59:01;;;;;;;66.73;3.30;;;20.00;1.00;;;;;;5102374;28;20208;-79
2023/07/13 02:01:26;;;;;;;67.13;3.30;;;20.00;1.00;;;;;;5097338;28;20169;-79
2023/07/13 02:03:52;;;;;;;66.93;3.17;;;20.00;1.00;;;;;;5097151;28;20167;-79
2023/07/13 02:06:18;;;;;;;69.40;3.33;;;19.80;1.00;;;;;;5096845;28;20164;-79
2023/07/13 02:08:44;;;;;;;66.50;2.97;;;19.90;1.00;;;;;;5097109;28;20219;-79
2023/07/13 02:11:09;;;;;;;67.90;3.27;;;19.60;1.00;;;;;;5097175;28;20635;-79
2023/07/13 02:13:35;;;;;;;67.57;2.83;;;19.70;1.00;;;;;;5096926;28;20582;-79
2023/07/13 02:16:00;;;;;;;71.60;3.47;;;19.70;1.00;;;;;;5098024;28;20156;-79
2023/07/13 02:18:26;;;;;;;67.60;3.27;;;19.80;1.00;;;;;;5097081;28;20243;-79
2023/07/13 02:20:53;;;;;;;67.90;2.90;;;19.90;1.00;;;;;;5097251;28;20184;-79
2023/07/13 02:23:18;;;;;;;73.87;3.50;;;19.70;1.00;;;;;;5097392;28;20392;-79
2023/07/13 02:25:45;;;;;;;68.40;2.53;;;19.80;1.00;;;;;;5097384;28;20500;-79
2023/07/13 02:28:11;;;;;;;67.57;2.90;;;19.70;1.00;;;;;;5097082;28;20231;-79
2023/07/13 02:30:38;;;;;;;66.60;3.20;;;19.70;1.00;;;;;;5096656;28;20906;-79
2023/07/13 02:33:04;;;;;;;69.17;3.00;;;19.70;1.00;;;;;;5078734;28;20172;-79
2023/07/13 02:35:30;;;;;;;68.30;2.83;;;19.70;1.00;;;;;;5096457;28;20411;-79
2023/07/13 02:37:55;;;;;;;67.60;2.90;;;19.70;1.00;;;;;;5096129;28;20433;-79
2023/07/13 02:40:21;;;;;;;67.10;3.00;;;19.70;1.00;;;;;;5096779;28;20165;-79
2023/07/13 02:42:47;;;;;;;67.97;3.13;;;19.70;1.00;;;;;;5096857;28;20193;-79
2023/07/13 02:45:13;;;;;;;69.00;2.97;;;19.70;1.00;;;;;;5097016;28;20156;-79
2023/07/13 02:47:41;;;;;;;69.27;3.03;;;19.80;1.00;;;;;;5096570;28;20206;-79
2023/07/13 02:50:07;;;;;;;65.70;2.80;;;19.80;1.00;;;;;;5096669;28;20397;-79
2023/07/13 02:52:33;;;;;;;69.90;3.50;;;19.80;1.00;;;;;;5096943;28;20458;-79
2023/07/13 02:54:59;;;;;;;68.77;2.70;;;19.70;1.00;;;;;;5096166;28;20907;-79
2023/07/13 02:57:25;;;;;;;70.93;3.57;;;19.70;1.00;;;;;;5096148;28;20225;-79
2023/07/13 02:59:50;;;;;;;68.83;2.60;;;19.70;1.00;;;;;;5096444;28;20184;-79
2023/07/13 03:02:16;;;;;;;65.90;2.57;;;19.60;1.00;;;;;;5096154;28;20396;-79
2023/07/13 03:04:42;;;;;;;71.27;2.90;;;19.60;1.00;;;;;;5096254;28;20166;-79
2023/07/13 03:07:08;;;;;;;66.00;2.67;;;19.70;1.00;;;;;;5098874;28;20526;-79
2023/07/13 03:09:34;;;;;;;65.77;2.47;;;19.60;1.00;;;;;;5099850;28;20216;-79
2023/07/13 03:12:00;;;;;;;67.20;2.53;;;19.60;1.00;;;;;;5100666;28;20391;-79
2023/07/13 03:14:26;;;;;;;67.07;2.60;;;19.60;1.00;;;;;;5101040;28;20395;-79
2023/07/13 03:16:52;;;;;;;65.47;2.53;;;19.60;1.00;;;;;;5100310;28;20440;-78
2023/07/13 03:19:18;;;;;;;67.27;2.80;;;19.70;1.00;;;;;;5100003;28;20185;-79
2023/07/13 03:21:43;;;;;;;73.53;3.53;;;19.60;1.00;;;;;;5100386;28;20164;-79
2023/07/13 03:24:09;;;;;;;68.30;3.03;;;19.60;1.00;;;;;;5100402;28;20411;-79
2023/07/13 03:26:35;;;;;;;68.47;2.80;;;19.60;1.00;;;;;;5100099;28;20236;-79
2023/07/13 03:29:01;;;;;;;67.03;3.07;;;19.50;1.00;;;;;;5099736;28;20510;-79
2023/07/13 03:31:30;;;;;;;68.50;3.47;;;19.50;1.00;;;;;;5100081;28;20640;-79
2023/07/13 03:33:57;;;;;;;72.33;2.83;;;19.50;1.00;;;;;;5099999;28;20212;-79
2023/07/13 03:36:26;;;;;;;67.67;3.67;;;19.50;1.00;;;;;;5099723;28;20765;-79
2023/07/13 03:38:56;;;;;;;68.73;2.70;;;19.40;1.00;;;;;;5099828;28;20489;-79
2023/07/13 03:41:23;;;;;;;69.17;3.37;;;19.50;1.00;;;;;;5099987;28;20378;-79
2023/07/13 03:43:50;;;;;;;70.40;3.80;;;19.30;1.00;;;;;;5099824;28;20442;-79
2023/07/13 03:46:17;;;;;;;68.73;3.20;;;19.20;1.00;;;;;;5099670;28;20394;-79
2023/07/13 03:48:45;;;;;;;69.80;3.47;;;19.00;1.00;;;;;;5099801;28;20428;-79
2023/07/13 03:51:14;;;;;;;66.50;3.20;;;18.90;1.00;;;;;;5099873;28;20481;-79
2023/07/13 03:53:41;;;;;;;68.53;2.90;;;18.80;1.00;;;;;;5100158;28;20403;-79
2023/07/13 03:56:07;;;;;;;72.90;3.90;;;18.80;1.00;;;;;;5100131;28;20401;-79
2023/07/13 03:58:36;;;;;;;65.97;2.90;;;18.80;1.00;;;;;;5099256;28;20503;-79
2023/07/13 04:01:03;;;;;;;66.40;3.43;;;18.90;1.00;;;;;;5099127;28;20463;-79
2023/07/13 04:03:32;;;;;;;66.37;3.43;;;18.80;1.00;;;;;;5099604;28;20400;-79
2023/07/13 04:05:59;;;;;;;66.57;3.43;;;18.80;1.00;;;;;;5099163;28;20765;-79
2023/07/13 04:08:26;;;;;;;71.70;3.63;;;18.80;1.00;;;;;;5099716;28;20992;-78
2023/07/13 04:10:52;;;;;;;67.17;3.07;;;19.00;1.00;;;;;;5081589;28;20404;-79
2023/07/13 04:13:18;;;;;;;67.93;3.47;;;18.90;1.00;;;;;;5099330;28;20402;-79
2023/07/13 04:15:43;;;;;;;69.77;3.73;;;19.00;1.00;;;;;;5100083;28;20619;-79
2023/07/13 04:18:09;;;;;;;66.60;3.80;;;19.10;1.00;;;;;;5098458;28;20277;-79
2023/07/13 04:20:35;;;;;;;66.40;3.07;;;18.90;1.00;;;;;;5099462;28;20269;-79
2023/07/13 04:23:00;;;;;;;66.63;3.30;;;19.00;1.00;;;;;;5099388;28;20159;-79
2023/07/13 04:25:26;;;;;;;67.10;3.20;;;19.10;1.00;;;;;;5099603;28;20235;-79
2023/07/13 04:27:53;;;;;;;67.80;3.50;;;19.10;1.00;;;;;;5099202;28;20183;-79
2023/07/13 04:30:19;;;;;;;69.80;3.50;;;19.20;1.00;;;;;;5099279;28;20394;-79
2023/07/13 04:32:45;;;;;;;69.40;2.80;;;19.30;1.00;;;;;;5098816;28;20400;-79
2023/07/13 04:35:11;;;;;;;71.00;3.33;;;19.30;1.00;;;;;;5098867;28;20394;-79
2023/07/13 04:37:36;;;;;;;68.13;3.43;;;19.30;1.00;;;;;;5098974;28;20501;-79
2023/07/13 04:40:06;;;;;;;67.10;3.23;;;19.30;1.00;;;;;;5099146;28;20441;-79
2023/07/13 04:42:32;;;;;;;70.27;3.63;;;19.20;1.00;;;;;;5099085;28;20632;-79
2023/07/13 04:44:58;;;;;;;74.03;2.87;;;19.30;1.00;;;;;;5099108;28;20394;-79
2023/07/13 04:47:23;;;;;;;66.10;2.87;;;19.50;1.00;;;;;;5098614;28;20409;-79
2023/07/13 04:49:49;;;;;;;67.93;3.30;;;19.90;1.00;;;;;;5098707;28;20232;-79
2023/07/13 04:52:14;;;;;;;69.97;3.47;;;20.40;1.00;;;;;;5098602;28;20571;-79
2023/07/13 04:54:40;;;;;;;65.60;3.10;;;20.70;1.00;;;;;;5080324;28;20688;-79
2023/07/13 04:57:06;;;;;;;71.43;3.43;;;21.10;1.00;;;;;;5098857;28;20239;-79
2023/07/13 04:59:33;;;;;;;67.13;3.23;;;21.40;1.00;;;;;;5080352;28;20452;-79
2023/07/13 05:01:58;;;;;;;69.70;3.20;;;21.50;1.00;;;;;;5098836;28;20168;-79
2023/07/13 05:04:24;;;;;;;75.07;4.10;;;21.40;1.00;;;;;;5098798;28;20405;-79
2023/07/13 05:06:50;;;;;;;68.33;3.50;;;21.60;1.00;;;;;;5099251;28;20226;-79
2023/07/13 05:09:16;;;;;;;66.70;3.00;;;21.80;1.00;;;;;;5099433;28;20187;-79
2023/07/13 05:11:43;;;;;;;69.27;3.63;;;21.70;1.00;;;;;;5098796;28;20170;-79
2023/07/13 05:14:09;;;;;;;68.00;3.00;;;21.40;1.00;;;;;;5098239;28;20408;-79
2023/07/13 05:16:35;;;;;;;72.57;3.20;;;21.00;1.00;;;;;;5097955;28;20404;-79
2023/07/13 05:19:02;;;;;;;68.77;3.23;;;20.90;1.00;;;;;;5097788;28;20487;-79
2023/07/13 05:21:28;;;;;;;67.97;2.70;;;20.50;1.00;;;;;;5097624;28;20398;-79
2023/07/13 05:23:54;;;;;;;68.23;3.03;;;20.60;1.00;;;;;;5098245;28;20402;-79
2023/07/13 05:26:20;;;;;;;66.17;2.90;;;20.40;1.00;;;;;;5098460;28;20166;-79
2023/07/13 05:28:46;;;;;;;71.40;3.30;;;20.40;1.00;;;;;;5078731;28;20704;-79
2023/07/13 05:31:12;;;;;;;65.53;3.10;;;20.40;1.00;;;;;;5097645;28;20400;-79
2023/07/13 05:33:38;;;;;;;66.27;2.70;;;20.10;1.00;;;;;;5097690;28;20402;-79
2023/07/13 05:36:04;;;;;;;68.40;3.20;;;20.10;1.00;;;;;;5097023;28;20171;-79
2023/07/13 05:38:29;;;;;;;68.23;3.10;;;20.10;1.00;;;;;;5097227;28;20442;-79
2023/07/13 05:40:56;;;;;;;67.13;2.87;;;20.00;1.00;;;;;;5096507;28;20572;-78
2023/07/13 05:43:22;;;;;;;66.73;3.20;;;20.10;1.00;;;;;;5095669;28;20188;-78
2023/07/13 05:45:49;;;;;;;67.63;3.03;;;19.90;1.00;;;;;;5095803;28;20397;-78
2023/07/13 05:48:15;;;;;;;67.93;4.10;;;19.90;1.00;;;;;;5095514;28;20523;-78
2023/07/13 05:50:41;;;;;;;69.87;4.80;;;20.00;1.00;;;;;;5095914;28;20857;-78
2023/07/13 05:53:07;;;;;;;66.47;4.20;;;19.90;1.00;;;;;;5095583;28;20167;-79
2023/07/13 05:55:33;;;;;;;68.50;5.10;;;20.00;1.00;;;;;;5098510;28;20414;-78
2023/07/13 05:58:00;;;;;;;71.50;4.63;;;19.90;1.00;;;;;;5098026;28;20199;-79
2023/07/13 06:00:26;;;;;;;66.77;5.23;;;19.90;1.00;;;;;;5097416;28;20418;-79
2023/07/13 06:02:51;;;;;;;67.40;4.50;;;19.80;1.00;;;;;;5096579;28;20791;-79
2023/07/13 06:05:17;;;;;;;70.47;6.40;;;19.80;1.00;;;;;;5095849;28;20472;-79
2023/07/13 06:07:43;;;;;;;66.77;6.20;;;19.70;1.00;;;;;;5096465;28;20179;-79
2023/07/13 06:10:09;;;;;;;67.93;7.57;;;19.60;1.00;;;;;;5096834;28;20624;-79
2023/07/13 06:12:35;;;;;;;71.60;6.87;;;19.80;1.00;;;;;;5096304;28;20166;-79
2023/07/13 06:15:00;;;;;;;68.07;8.50;;;19.80;1.00;;;;;;5096590;28;20426;-79
2023/07/13 06:17:26;;;;;;;71.47;10.10;;;19.70;1.00;;;;;;5097037;28;20167;-78
2023/07/13 06:19:52;;;;;;;68.17;6.47;;;19.60;1.00;;;;;;5096705;28;20184;-79
2023/07/13 06:22:17;;;;;;;69.03;8.00;;;19.80;1.00;;;;;;5096467;28;20166;-79
2023/07/13 06:24:43;;;;;;;70.30;8.83;;;19.70;1.00;;;;;;5097129;28;20166;-79
2023/07/13 06:27:09;;;;;;;69.63;10.83;;;19.60;1.00;;;;;;5096666;28;20619;-79
2023/07/13 06:29:34;;;;;;;73.17;9.17;;;19.60;1.00;;;;;;5096589;28;20551;-79
2023/07/13 06:32:00;;;;;;;69.80;9.67;;;19.50;1.00;;;;;;5096874;28;20229;-79
2023/07/13 06:34:26;;;;;;;71.60;10.43;;;19.60;1.00;;;;;;5096878;28;20164;-79
2023/07/13 06:36:51;;;;;;;69.00;10.07;;;19.70;1.00;;;;;;5096415;28;20484;-79
2023/07/13 06:39:17;;;;;;;71.17;10.20;;;19.70;1.00;;;;;;5096002;28;20682;-78
2023/07/13 06:41:43;;;;;;;70.67;8.30;;;19.60;1.00;;;;;;5097528;28;20638;-79
2023/07/13 06:44:08;;;;;;;71.30;7.80;;;19.60;1.00;;;;;;5096318;28;20160;-79
2023/07/13 06:46:34;;;;;;;72.13;7.50;;;19.60;1.00;;;;;;5096830;28;20160;-79
2023/07/13 06:49:00;;;;;;;70.00;8.03;;;19.50;1.00;;;;;;5096298;28;20237;-79
2023/07/13 06:51:25;;;;;;;74.67;10.20;;;19.50;1.00;;;;;;5096824;28;20307;-79
2023/07/13 06:53:51;;;;;;;75.57;9.67;;;19.60;1.00;;;;;;5096867;28;20163;-79
2023/07/13 06:56:17;;;;;;;73.47;8.83;;;19.70;1.00;;;;;;5096579;28;20159;-79
2023/07/13 06:58:43;;;;;;;69.40;8.43;;;19.60;1.00;;;;;;5096291;28;20464;-79
2023/07/13 07:01:09;;;;;;;68.17;6.80;;;19.60;1.00;;;;;;5097009;28;20171;-79
2023/07/13 07:03:34;;;;;;;72.17;9.27;;;19.70;1.00;;;;;;5096529;28;20151;-78
2023/07/13 07:06:24;;;;;;;70.40;8.77;;;19.70;1.00;;;;;;5096579;28;20408;-79
2023/07/13 07:08:50;;;;;;;68.97;8.10;;;19.60;1.00;;;;;;5097005;28;20183;-79
2023/07/13 07:11:26;;;;;;;68.43;7.30;;;19.50;1.00;;;;;;5096429;28;20412;-78
2023/07/13 07:13:52;;;;;;;69.53;8.73;;;19.40;1.00;;;;;;5096670;28;20860;-79
2023/07/13 07:16:19;;;;;;;72.90;7.87;;;19.50;1.00;;;;;;5096599;28;20401;-79
2023/07/13 07:18:45;;;;;;;69.70;7.73;;;19.50;1.00;;;;;;5096235;28;20444;-79
2023/07/13 07:21:12;;;;;;;67.90;7.87;;;19.50;1.00;;;;;;5096141;28;20406;-79
2023/07/13 07:23:38;;;;;;;71.30;7.90;;;19.50;1.00;;;;;;5096623;28;20417;-78
2023/07/13 07:26:04;;;;;;;67.57;6.80;;;19.50;1.00;;;;;;5096465;28;20389;-79
2023/07/13 07:28:30;;;;;;;69.00;6.60;;;19.50;1.00;;;;;;5096969;28;20708;-79
2023/07/13 07:30:57;;;;;;;68.20;5.77;;;19.70;1.00;;;;;;5096531;28;20475;-79
2023/07/13 07:33:24;;;;;;;68.17;6.40;;;19.70;1.00;;;;;;5096266;28;20172;-79
2023/07/13 07:35:50;;;;;;;71.13;8.70;;;19.90;1.00;;;;;;5095987;28;20482;-79
2023/07/13 07:38:16;;;;;;;71.67;8.20;;;20.10;1.00;;;;;;5095815;28;20496;-79
2023/07/13 07:40:42;;;;;;;71.70;10.40;;;20.30;1.00;;;;;;5096339;28;20395;-79
2023/07/13 07:43:09;;;;;;;68.90;8.20;;;20.50;1.00;;;;;;5096387;28;20758;-79
2023/07/13 07:45:37;;;;;;;69.40;8.73;;;20.70;1.00;;;;;;5096142;28;20759;-79
2023/07/13 07:48:04;;;;;;;67.90;6.07;;;20.70;1.00;;;;;;5078015;28;20949;-78
2023/07/13 07:50:30;;;;;;;69.67;7.40;;;20.90;1.00;;;;;;5096087;28;20402;-79
2023/07/13 07:52:56;;;;;;;73.07;5.83;;;20.90;1.00;;;;;;5098265;28;20430;-78
2023/07/13 07:55:22;;;;;;;67.90;4.97;;;21.10;1.00;;;;;;5081957;28;20399;-78
2023/07/13 07:57:48;;;;;;;67.57;4.53;;;21.20;1.00;;;;;;5180871;22;20882;-83
2023/07/13 08:00:15;;;;;;;68.33;5.60;;;21.20;1.00;;;;;;5085259;28;20530;-82
2023/07/13 08:02:41;;;;;;;68.80;4.87;;;21.30;1.00;;;;;;5101173;28;20191;-80
2023/07/13 08:05:08;;;;;;;68.10;4.70;;;21.30;1.00;;;;;;5082106;28;20466;-79
2023/07/13 08:07:34;;;;;;;73.70;4.50;;;21.50;1.00;;;;;;5099830;28;20409;-79
2023/07/13 08:10:00;;;;;;;70.10;3.60;;;21.60;1.00;;;;;;5099662;28;20404;-79
2023/07/13 08:12:26;;;;;;;66.23;3.23;;;21.80;1.00;;;;;;5099838;28;20431;-79
2023/07/13 08:14:57;;;;;;;66.40;3.23;;;21.90;1.00;;;;;;5099554;28;20203;-80
2023/07/13 08:17:23;;;;;;;68.00;3.90;;;21.90;1.00;;;;;;5080777;28;20777;-80
2023/07/13 08:19:49;;;;;;;67.47;3.20;;;21.80;1.00;;;;;;5098687;28;20444;-79
2023/07/13 08:22:15;;;;;;;66.60;3.10;;;21.80;1.00;;;;;;5099876;28;20450;-79
2023/07/13 08:24:42;;;;;;;68.67;3.57;;;22.00;1.00;;;;;;5081887;28;20164;-80
2023/07/13 08:27:08;;;;;;;69.07;3.27;;;22.00;1.00;;;;;;5099329;28;20163;-80
2023/07/13 08:29:34;;;;;;;67.73;3.33;;;22.10;1.00;;;;;;5098779;28;20429;-80
2023/07/13 08:31:59;;;;;;;72.17;3.93;;;22.20;1.00;;;;;;5099220;28;20894;-79
2023/07/13 08:34:25;;;;;;;70.47;3.13;;;22.30;1.00;;;;;;5099158;28;20174;-79
2023/07/13 08:36:51;;;;;;;69.80;2.73;;;22.40;1.00;;;;;;5098494;28;20187;-80
2023/07/13 08:39:17;;;;;;;68.00;2.80;;;22.40;1.00;;;;;;5098260;28;20194;-79
2023/07/13 08:41:49;;;;;;;68.07;3.27;;;22.50;1.00;;;;;;5099028;28;20216;-79
2023/07/13 08:44:53;;;;;;;69.30;3.30;;;22.50;1.00;;;;;;5099183;28;20386;-79
2023/07/13 08:47:22;;;;;;;69.27;2.50;;;22.60;1.00;;;;;;5099672;28;20860;-80
2023/07/13 08:49:47;;;;;;;69.90;2.37;;;22.60;1.00;;;;;;5080900;28;20462;-79
2023/07/13 08:54:48;;;;;;;68.97;2.80;;;22.80;1.00;;;;;;5347641;22;20718;-81
2023/07/13 08:57:20;;;;;;;68.20;2.90;;;22.80;1.00;;;;;;5117908;28;20895;-79
2023/07/13 08:59:46;;;;;;;70.03;2.70;;;22.70;1.00;;;;;;5096234;28;20896;-79
2023/07/13 09:02:21;;;;;;;69.80;3.17;;;22.70;1.00;;;;;;5096891;28;20884;-79
2023/07/13 09:05:08;;;;;;;70.10;2.77;;;22.80;1.00;;;;;;5096538;28;20384;-79
2023/07/13 09:07:42;;;;;;;68.33;2.70;;;22.80;1.00;;;;;;5096836;28;20476;-79
2023/07/13 09:10:24;;;;;;;69.83;3.00;;;22.80;1.00;;;;;;5096380;28;20442;-79
2023/07/13 09:12:58;;;;;;;68.63;2.80;;;22.80;1.00;;;;;;5096846;28;20385;-79
2023/07/13 09:15:34;;;;;;;66.73;2.73;;;22.90;1.00;;;;;;5096829;28;20417;-79
2023/07/13 09:18:15;;;;;;;70.10;3.13;;;22.80;1.00;;;;;;5096080;28;20730;-79
2023/07/13 09:20:50;;;;;;;68.23;3.50;;;22.90;1.00;;;;;;5096927;28;20393;-79
2023/07/13 09:23:20;;;;;;;70.60;3.20;;;23.10;1.00;;;;;;5096850;28;20522;-79
2023/07/13 09:25:50;;;;;;;68.90;3.33;;;23.20;1.00;;;;;;5096231;28;20389;-79
2023/07/13 09:28:25;;;;;;;71.67;3.70;;;23.40;1.00;;;;;;5096270;28;20425;-79
2023/07/13 09:31:12;;;;;;;69.00;2.43;;;23.40;1.00;;;;;;5096663;28;20452;-81
2023/07/13 09:33:38;;;;;;;71.03;3.10;;;23.50;1.00;;;;;;5096554;28;20739;-82
2023/07/13 09:36:23;;;;;;;73.53;3.57;;;23.50;1.00;;;;;;5096113;28;20396;-81
2023/07/13 09:38:58;;;;;;;66.97;2.70;;;23.70;1.00;;;;;;5095831;28;20195;-82
2023/07/13 09:41:37;;;;;;;67.40;2.80;;;23.70;1.00;;;;;;5097695;28;20382;-81
2023/07/13 09:44:08;;;;;;;66.97;3.20;;;23.80;1.00;;;;;;5095816;28;20370;-81
2023/07/13 09:46:34;;;;;;;68.27;2.80;;;23.70;1.00;;;;;;5078669;28;20967;-81
2023/07/13 09:49:00;;;;;;;68.50;3.53;;;23.80;1.00;;;;;;5097119;28;20417;-83
2023/07/13 09:51:26;;;;;;;68.57;3.30;;;23.90;1.00;;;;;;5097401;28;20464;-82
2023/07/13 09:53:57;;;;;;;68.57;3.07;;;24.00;1.00;;;;;;5097724;28;20167;-82
2023/07/13 09:56:28;;;;;;;68.30;2.90;;;24.30;1.00;;;;;;5078957;28;20225;-82
2023/07/13 09:58:53;;;;;;;68.40;2.93;;;24.20;1.00;;;;;;5078198;28;20502;-82
2023/07/13 10:01:38;;;;;;;68.03;3.03;;;24.20;1.00;;;;;;5096501;28;20401;-81
2023/07/13 10:04:13;;;;;;;72.50;3.07;;;24.20;1.00;;;;;;5078286;28;20168;-81
2023/07/13 10:06:42;;;;;;;69.00;3.30;;;24.00;1.00;;;;;;5097216;28;20456;-81
2023/07/13 10:09:09;;;;;;;67.97;2.80;;;24.10;1.00;;;;;;5097408;28;20409;-82
2023/07/13 10:11:37;;;;;;;69.67;3.20;;;24.10;1.00;;;;;;5079978;28;20405;-82
2023/07/13 10:14:12;;;;;;;70.40;3.60;;;24.20;1.00;;;;;;5081141;28;20421;-82
2023/07/13 10:16:39;;;;;;;67.33;3.33;;;24.30;1.00;;;;;;5098036;28;20729;-82
2023/07/13 10:19:10;;;;;;;69.43;2.90;;;24.20;1.00;;;;;;5080312;28;20924;-82
2023/07/13 10:21:43;;;;;;;71.50;3.10;;;24.40;1.00;;;;;;5098953;28;20386;-83
2023/07/13 10:24:18;;;;;;;68.33;3.13;;;24.50;1.00;;;;;;5081194;28;20451;-82
2023/07/13 10:26:52;;;;;;;68.17;2.73;;;24.50;1.00;;;;;;5099313;28;20398;-82
2023/07/13 10:29:18;;;;;;;67.50;3.50;;;24.50;1.00;;;;;;5098668;28;20409;-82
2023/07/13 10:31:45;;;;;;;69.60;3.03;;;24.60;1.00;;;;;;5099528;28;20405;-82
2023/07/13 10:34:14;;;;;;;68.57;3.50;;;24.70;1.00;;;;;;5098246;28;20441;-82
2023/07/13 10:36:44;;;;;;;68.70;4.57;;;24.90;1.00;;;;;;5098521;28;20406;-81
2023/07/13 10:39:26;;;;;;;68.77;3.87;;;25.00;1.00;;;;;;5098090;28;20446;-82
2023/07/13 10:41:57;;;;;;;67.90;4.40;;;25.10;1.00;;;;;;5079827;28;20484;-82
2023/07/13 10:44:28;;;;;;;67.63;3.43;;;25.00;1.00;;;;;;5098337;28;20384;-82
2023/07/13 10:46:57;;;;;;;66.57;3.50;;;25.10;1.00;;;;;;5098117;28;20387;-83
2023/07/13 10:49:24;;;;;;;72.53;4.50;;;24.90;1.00;;;;;;5098161;28;20928;-80
2023/07/13 10:51:51;;;;;;;69.47;3.40;;;24.80;1.00;;;;;;5098153;28;20437;-80
2023/07/13 10:54:18;;;;;;;69.27;3.87;;;24.70;1.00;;;;;;5079518;28;20413;-80
2023/07/13 10:56:46;;;;;;;68.00;4.20;;;24.90;1.00;;;;;;5097516;28;20487;-80
2023/07/13 10:59:16;;;;;;;68.60;4.40;;;25.10;1.00;;;;;;5097234;28;20459;-79
2023/07/13 11:01:51;;;;;;;71.07;5.13;;;25.10;1.00;;;;;;5097468;28;20386;-79
2023/07/13 11:04:20;;;;;;;71.53;4.50;;;25.10;1.00;;;;;;5079090;28;20395;-82
2023/07/13 11:06:51;;;;;;;68.40;3.80;;;25.00;1.00;;;;;;5078446;28;20410;-82
2023/07/13 11:09:32;;;;;;;70.47;4.53;;;24.70;1.00;;;;;;5096856;28;20429;-82
2023/07/13 11:12:09;;;;;;;70.07;4.13;;;24.30;1.00;;;;;;5096181;28;20920;-82
2023/07/13 11:14:43;;;;;;;69.80;3.67;;;24.20;1.00;;;;;;5096711;28;20402;-83
2023/07/13 11:17:28;;;;;;;71.50;3.80;;;24.20;1.00;;;;;;5096301;28;20745;-82
2023/07/13 11:20:03;;;;;;;69.00;3.13;;;24.20;1.00;;;;;;5096583;28;20444;-82
2023/07/13 11:22:49;;;;;;;68.80;4.37;;;24.10;1.00;;;;;;5096977;28;20439;-82
2023/07/13 11:25:26;;;;;;;76.30;4.23;;;24.20;1.00;;;;;;5097132;28;20857;-82
2023/07/13 11:28:11;;;;;;;69.40;3.83;;;24.40;1.00;;;;;;5098294;28;20499;-82
2023/07/13 11:30:52;;;;;;;68.63;3.70;;;24.60;1.00;;;;;;5100523;28;20378;-82
2023/07/13 11:33:36;;;;;;;68.60;4.33;;;24.50;1.00;;;;;;5100477;28;20396;-82
2023/07/13 11:36:05;;;;;;;70.17;4.37;;;24.40;1.00;;;;;;5100328;28;20385;-82
2023/07/13 11:38:42;;;;;;;66.80;3.90;;;24.30;1.00;;;;;;5099918;28;20444;-82
2023/07/13 11:41:19;;;;;;;69.53;4.30;;;24.10;1.00;;;;;;5100358;28;20398;-82
2023/07/13 11:43:49;;;;;;;70.90;3.50;;;24.00;1.00;;;;;;5100578;28;21026;-82
2023/07/13 11:46:26;;;;;;;67.57;3.47;;;23.90;1.00;;;;;;5081901;28;20401;-82
2023/07/13 11:48:52;;;;;;;69.83;4.17;;;23.90;1.00;;;;;;5098489;28;20427;-82
2023/07/13 11:51:26;;;;;;;69.80;3.47;;;24.00;1.00;;;;;;5097548;28;20416;-81
2023/07/13 11:53:55;;;;;;;67.40;3.67;;;24.20;1.00;;;;;;5097559;28;20377;-82
2023/07/13 11:56:22;;;;;;;69.60;3.83;;;24.40;1.00;;;;;;5097248;28;20466;-82
2023/07/13 11:58:53;;;;;;;71.60;4.87;;;24.50;1.00;;;;;;5097219;28;20481;-82
2023/07/13 12:01:32;;;;;;;70.70;4.23;;;24.60;1.00;;;;;;5079372;28;20750;-81
2023/07/13 12:04:00;;;;;;;69.70;5.37;;;24.40;1.00;;;;;;5098372;28;20414;-81
2023/07/13 12:06:32;;;;;;;72.30;5.13;;;24.20;1.00;;;;;;5097428;28;20402;-81
2023/07/13 12:09:00;;;;;;;67.77;4.57;;;24.20;1.00;;;;;;5097586;28;20417;-82
2023/07/13 12:11:27;;;;;;;72.23;5.20;;;24.10;1.00;;;;;;5079785;28;20455;-82
2023/07/13 12:13:53;;;;;;;67.57;5.00;;;24.20;1.00;;;;;;5097218;28;20397;-81
2023/07/13 12:16:46;;;;;;;70.50;5.07;;;24.20;1.00;;;;;;5096799;28;20410;-82
2023/07/13 12:19:24;;;;;;;71.60;4.10;;;24.30;1.00;;;;;;5092471;28;20214;-82
2023/07/13 12:21:53;;;;;;;71.80;4.20;;;24.20;1.00;;;;;;5097210;28;20428;-81
2023/07/13 12:24:20;;;;;;;70.20;5.93;;;24.20;1.00;;;;;;5097340;28;20426;-81
2023/07/13 12:27:02;;;;;;;68.00;5.57;;;24.40;1.00;;;;;;5097207;28;20920;-82
2023/07/13 12:29:27;;;;;;;69.00;4.90;;;24.50;1.00;;;;;;5096407;28;20554;-81
2023/07/13 12:31:54;;;;;;;70.57;5.47;;;24.60;1.00;;;;;;5096982;28;20430;-81
2023/07/13 12:34:27;;;;;;;68.50;5.17;;;24.70;1.00;;;;;;5099549;28;20246;-83
2023/07/13 12:37:00;;;;;;;69.10;4.90;;;24.70;1.00;;;;;;5099237;28;20386;-82
2023/07/13 12:39:36;;;;;;;69.73;6.27;;;24.70;1.00;;;;;;5098220;28;20451;-82
2023/07/13 12:42:25;;;;;;;67.67;5.27;;;24.70;1.00;;;;;;5081165;28;20439;-82
2023/07/13 12:44:59;;;;;;;69.07;5.87;;;24.70;1.00;;;;;;5098825;28;20382;-82
2023/07/13 12:47:26;;;;;;;68.57;5.50;;;24.90;1.00;;;;;;5098568;28;20437;-83
2023/07/13 12:49:58;;;;;;;67.80;5.50;;;25.10;1.00;;;;;;5099526;28;20409;-83
2023/07/13 12:52:34;;;;;;;70.80;5.93;;;25.00;1.00;;;;;;5099772;28;20406;-83
2023/07/13 12:55:14;;;;;;;72.33;5.37;;;24.80;1.00;;;;;;5098473;28;20424;-82
2023/07/13 12:58:02;;;;;;;69.17;5.20;;;24.80;1.00;;;;;;5099164;28;20414;-83